createdAt,value
2018-09-18T00:01:49.932Z,17.60
2018-09-18T00:04:18.604Z,17.60
2018-09-18T00:06:47.338Z,17.50
2018-09-18T00:09:16.034Z,17.40
2018-09-18T00:11:44.643Z,17.30
2018-09-18T00:14:13.353Z,17.30
2018-09-18T00:16:42.105Z,17.50
2018-09-18T00:19:10.848Z,17.60
2018-09-18T00:21:39.548Z,17.70
2018-09-18T00:24:08.205Z,17.70
2018-09-18T00:26:36.736Z,17.60
2018-09-18T00:29:05.415Z,17.40
2018-09-18T00:31:34.330Z,17.30
2018-09-18T00:34:03.016Z,17.30
2018-09-18T00:36:31.733Z,17.30
2018-09-18T00:39:00.296Z,17.40
2018-09-18T00:41:28.871Z,17.50
2018-09-18T00:43:57.455Z,17.60
2018-09-18T00:46:26.041Z,17.70
2018-09-18T00:48:54.580Z,17.60
2018-09-18T00:51:23.268Z,17.60
2018-09-18T00:53:51.873Z,17.50
2018-09-18T00:56:20.405Z,17.60
2018-09-18T00:58:49.352Z,17.60
2018-09-18T01:01:17.901Z,17.60
2018-09-18T01:03:46.537Z,17.50
2018-09-18T01:06:15.188Z,17.40
2018-09-18T01:08:43.785Z,17.30
2018-09-18T01:11:14.250Z,17.30
2018-09-18T01:13:43.955Z,17.30
2018-09-18T01:16:12.545Z,17.20
2018-09-18T01:18:42.110Z,17.30
2018-09-18T01:21:11.437Z,17.30
2018-09-18T01:23:40.036Z,17.30
2018-09-18T01:26:08.667Z,17.30
2018-09-18T01:28:37.275Z,17.30
2018-09-18T01:31:06.005Z,17.30
2018-09-18T01:33:35.078Z,17.40
2018-09-18T01:36:04.465Z,17.40
2018-09-18T01:38:33.130Z,17.40
2018-09-18T01:41:01.844Z,17.30
2018-09-18T01:43:30.535Z,17.30
2018-09-18T01:45:59.201Z,17.40
2018-09-18T01:48:27.829Z,17.50
2018-09-18T01:50:56.465Z,17.60
2018-09-18T01:53:25.439Z,17.80
2018-09-18T01:55:54.078Z,17.70
2018-09-18T01:58:28.205Z,17.60
2018-09-18T02:00:56.800Z,17.70
2018-09-18T02:03:25.425Z,17.70
2018-09-18T02:05:54.043Z,17.80
2018-09-18T02:08:22.668Z,17.70
2018-09-18T02:10:51.243Z,17.80
2018-09-18T02:13:19.806Z,17.80
2018-09-18T02:15:48.568Z,17.80
2018-09-18T02:18:17.136Z,17.90
2018-09-18T02:20:45.713Z,17.80
2018-09-18T02:23:14.288Z,17.60
2018-09-18T02:25:43.496Z,17.40
2018-09-18T02:28:12.193Z,17.30
2018-09-18T02:30:40.863Z,17.20
2018-09-18T02:33:09.711Z,17.10
2018-09-18T02:35:38.406Z,17.10
2018-09-18T02:38:07.142Z,17.00
2018-09-18T02:40:35.848Z,17.00
2018-09-18T02:43:04.961Z,17.00
2018-09-18T02:45:33.656Z,17.10
2018-09-18T02:48:02.416Z,17.10
2018-09-18T02:50:32.095Z,17.10
2018-09-18T02:53:00.748Z,17.20
2018-09-18T02:55:29.425Z,17.20
2018-09-18T02:57:58.017Z,17.30
2018-09-18T03:00:26.643Z,17.30
2018-09-18T03:02:55.260Z,17.30
2018-09-18T03:05:23.833Z,17.30
2018-09-18T03:07:52.393Z,17.20
2018-09-18T03:10:20.953Z,17.20
2018-09-18T03:12:49.548Z,17.20
2018-09-18T03:15:18.318Z,17.20
2018-09-18T03:17:46.916Z,17.20
2018-09-18T03:20:15.563Z,17.10
2018-09-18T03:22:44.122Z,17.00
2018-09-18T03:25:12.764Z,16.90
2018-09-18T03:27:41.335Z,16.90
2018-09-18T03:30:09.994Z,16.90
2018-09-18T03:32:38.643Z,16.90
2018-09-18T03:35:07.203Z,16.90
2018-09-18T03:37:35.793Z,17.00
2018-09-18T03:40:04.518Z,17.10
2018-09-18T03:42:33.102Z,17.20
2018-09-18T03:45:01.701Z,17.20
2018-09-18T03:47:30.245Z,17.30
2018-09-18T03:49:58.853Z,17.30
2018-09-18T03:52:27.438Z,17.50
2018-09-18T03:54:56.003Z,17.50
2018-09-18T03:57:24.621Z,17.40
2018-09-18T03:59:53.286Z,17.40
2018-09-18T04:02:22.171Z,17.40
2018-09-18T04:04:51.751Z,17.40
2018-09-18T04:07:20.318Z,17.40
2018-09-18T04:09:48.960Z,17.30
2018-09-18T04:12:17.631Z,17.30
2018-09-18T04:14:46.296Z,17.30
2018-09-18T04:17:15.736Z,17.30
2018-09-18T04:19:44.446Z,17.30
2018-09-18T04:22:13.014Z,17.20
2018-09-18T04:24:41.593Z,17.30
2018-09-18T04:27:11.144Z,17.30
2018-09-18T04:29:39.712Z,17.30
2018-09-18T04:32:08.312Z,17.30
2018-09-18T04:34:36.868Z,17.30
2018-09-18T04:37:05.473Z,17.30
2018-09-18T04:39:35.023Z,17.30
2018-09-18T04:42:03.644Z,17.20
2018-09-18T04:44:32.286Z,17.20
2018-09-18T04:47:00.881Z,17.20
2018-09-18T04:49:29.510Z,17.20
2018-09-18T04:51:58.108Z,17.20
2018-09-18T04:54:26.751Z,17.20
2018-09-18T04:56:55.501Z,17.20
2018-09-18T04:59:24.261Z,17.20
2018-09-18T05:01:53.017Z,17.20
2018-09-18T05:04:22.123Z,17.20
2018-09-18T05:06:50.936Z,17.30
2018-09-18T05:09:19.696Z,17.30
2018-09-18T05:11:48.342Z,17.30
2018-09-18T05:14:17.001Z,17.30
2018-09-18T05:16:45.736Z,17.30
2018-09-18T05:19:14.453Z,17.30
2018-09-18T05:21:43.180Z,17.30
2018-09-18T05:24:11.891Z,17.30
2018-09-18T05:26:40.616Z,17.30
2018-09-18T05:29:09.364Z,17.30
2018-09-18T05:31:38.034Z,17.30
2018-09-18T05:34:06.683Z,17.20
2018-09-18T05:36:35.361Z,17.20
2018-09-18T05:39:05.975Z,17.30
2018-09-18T05:41:34.681Z,17.20
2018-09-18T05:44:03.454Z,17.30
2018-09-18T05:46:32.207Z,17.40
2018-09-18T05:49:00.871Z,17.40
2018-09-18T05:51:29.528Z,17.30
2018-09-18T05:53:58.176Z,17.40
2018-09-18T05:56:26.937Z,17.50
2018-09-18T05:58:55.661Z,17.60
2018-09-18T06:01:24.431Z,17.70
2018-09-18T06:03:53.033Z,17.80
2018-09-18T06:06:21.588Z,17.80
2018-09-18T06:08:50.103Z,18.00
2018-09-18T06:11:18.701Z,18.20
2018-09-18T06:13:47.366Z,18.50
2018-09-18T06:16:16.133Z,18.80
2018-09-18T06:18:44.871Z,19.10
2018-09-18T06:21:14.516Z,19.50
2018-09-18T06:23:43.293Z,19.80
2018-09-18T06:26:12.009Z,19.90
2018-09-18T06:28:40.648Z,19.80
2018-09-18T06:31:09.333Z,19.70
2018-09-18T06:33:37.917Z,19.60
2018-09-18T06:36:06.605Z,19.70
2018-09-18T06:38:35.168Z,19.90
2018-09-18T06:41:03.700Z,20.20
2018-09-18T06:43:32.205Z,20.60
2018-09-18T06:46:00.736Z,20.90
2018-09-18T06:48:29.347Z,21.20
2018-09-18T06:50:57.880Z,21.50
2018-09-18T06:53:26.400Z,21.80
2018-09-18T06:55:54.945Z,21.80
2018-09-18T06:58:23.486Z,21.90
2018-09-18T07:00:52.023Z,21.90
2018-09-18T07:03:20.593Z,22.20
2018-09-18T07:05:49.343Z,22.40
2018-09-18T07:08:18.025Z,22.40
2018-09-18T07:10:46.675Z,22.50
2018-09-18T07:13:15.493Z,22.50
2018-09-18T07:15:44.146Z,22.40
2018-09-18T07:18:12.849Z,22.40
2018-09-18T07:20:41.522Z,22.30
2018-09-18T07:23:10.155Z,22.20
2018-09-18T07:25:38.818Z,22.30
2018-09-18T07:28:07.450Z,22.20
2018-09-18T07:30:36.127Z,22.40
2018-09-18T07:33:04.798Z,22.50
2018-09-18T07:35:33.448Z,22.70
2018-09-18T07:38:02.083Z,22.90
2018-09-18T07:40:30.740Z,23.00
2018-09-18T07:42:59.409Z,23.10
2018-09-18T07:45:28.052Z,23.30
2018-09-18T07:47:56.673Z,23.50
2018-09-18T07:50:25.321Z,23.70
2018-09-18T07:52:53.943Z,24.00
2018-09-18T07:55:28.036Z,24.20
2018-09-18T07:57:56.559Z,24.30
2018-09-18T08:00:25.105Z,24.60
2018-09-18T08:02:53.637Z,25.00
2018-09-18T08:05:22.257Z,25.20
2018-09-18T08:07:50.929Z,25.20
2018-09-18T08:10:19.669Z,25.40
2018-09-18T08:12:48.419Z,25.80
2018-09-18T08:15:17.002Z,26.00
2018-09-18T08:17:45.554Z,26.30
2018-09-18T08:20:14.119Z,26.30
2018-09-18T08:22:42.654Z,26.10
2018-09-18T08:25:11.269Z,26.30
2018-09-18T08:27:39.949Z,26.80
2018-09-18T08:30:08.703Z,27.10
2018-09-18T08:32:37.356Z,27.40
2018-09-18T08:35:06.127Z,27.50
2018-09-18T08:37:34.814Z,27.70
2018-09-18T08:40:03.589Z,27.90
2018-09-18T08:42:32.286Z,28.30
2018-09-18T08:45:00.926Z,28.40
2018-09-18T08:47:29.604Z,28.30
2018-09-18T08:49:58.349Z,28.20
2018-09-18T08:52:27.028Z,28.50
2018-09-18T08:54:55.667Z,28.80
2018-09-18T08:57:24.852Z,29.00
2018-09-18T08:59:53.718Z,28.80
2018-09-18T09:02:22.407Z,29.30
2018-09-18T09:04:51.081Z,29.40
2018-09-18T09:07:19.905Z,29.60
2018-09-18T09:09:48.589Z,29.80
2018-09-18T09:12:17.338Z,29.90
2018-09-18T09:14:45.954Z,30.30
2018-09-18T09:17:14.527Z,30.00
2018-09-18T09:19:43.117Z,29.70
2018-09-18T09:22:11.772Z,30.00
2018-09-18T09:24:40.396Z,29.70
2018-09-18T09:27:09.131Z,29.50
2018-09-18T09:29:37.862Z,29.60
2018-09-18T09:32:06.923Z,29.90
2018-09-18T09:34:35.612Z,30.50
2018-09-18T09:37:04.461Z,30.40
2018-09-18T09:39:33.138Z,30.20
2018-09-18T09:42:05.607Z,30.60
2018-09-18T09:44:34.199Z,30.20
2018-09-18T09:47:02.769Z,30.50
2018-09-18T09:49:31.306Z,30.90
2018-09-18T09:51:59.849Z,31.10
2018-09-18T09:54:28.434Z,30.50
2018-09-18T09:56:57.046Z,29.70
2018-09-18T09:59:25.543Z,29.10
2018-09-18T10:01:59.596Z,28.80
2018-09-18T10:04:28.146Z,29.60
2018-09-18T10:06:56.742Z,30.50
2018-09-18T10:09:30.931Z,31.00
2018-09-18T10:11:59.599Z,30.70
2018-09-18T10:14:28.181Z,30.10
2018-09-18T10:16:56.818Z,29.60
2018-09-18T10:19:25.356Z,30.00
2018-09-18T10:21:54.040Z,30.00
2018-09-18T10:24:22.714Z,29.90
2018-09-18T10:26:51.485Z,30.40
2018-09-18T10:29:20.216Z,30.80
2018-09-18T10:31:48.961Z,31.10
2018-09-18T10:34:17.629Z,31.70
2018-09-18T10:36:46.314Z,32.40
2018-09-18T10:39:15.089Z,32.80
2018-09-18T10:41:43.815Z,33.10
2018-09-18T10:44:13.031Z,33.30
2018-09-18T10:46:41.638Z,33.40
2018-09-18T10:49:10.231Z,34.00
2018-09-18T10:51:38.786Z,34.00
2018-09-18T10:54:07.496Z,34.20
2018-09-18T10:56:36.228Z,34.30
2018-09-18T10:59:05.657Z,33.70
2018-09-18T11:01:34.371Z,32.60
2018-09-18T11:04:03.124Z,32.40
2018-09-18T11:06:31.811Z,32.10
2018-09-18T11:09:00.566Z,32.50
2018-09-18T11:11:29.310Z,31.90
2018-09-18T11:13:58.062Z,30.60
2018-09-18T11:16:26.603Z,29.90
2018-09-18T11:18:55.230Z,29.50
2018-09-18T11:21:23.880Z,29.00
2018-09-18T11:23:52.526Z,28.50
2018-09-18T11:26:21.209Z,28.10
2018-09-18T11:28:50.552Z,28.10
2018-09-18T11:31:19.378Z,27.90
2018-09-18T11:33:47.922Z,27.80
2018-09-18T11:36:16.465Z,27.70
2018-09-18T11:38:45.047Z,27.40
2018-09-18T11:41:13.604Z,26.70
2018-09-18T11:43:42.281Z,26.40
2018-09-18T11:46:10.981Z,26.30
2018-09-18T11:48:39.686Z,26.00
2018-09-18T11:51:08.357Z,25.60
2018-09-18T11:53:36.961Z,25.50
2018-09-18T11:56:11.214Z,26.00
2018-09-18T11:58:46.069Z,27.10
2018-09-18T12:01:14.726Z,28.00
2018-09-18T12:03:43.616Z,29.00
2018-09-18T12:06:12.311Z,30.00
2018-09-18T12:08:41.835Z,30.70
2018-09-18T12:11:10.716Z,31.20
2018-09-18T12:13:39.393Z,31.80
2018-09-18T12:16:08.064Z,31.60
2018-09-18T12:18:37.367Z,31.60
2018-09-18T12:21:07.173Z,31.90
2018-09-18T12:23:35.802Z,31.70
2018-09-18T12:26:04.507Z,32.10
2018-09-18T12:28:33.476Z,31.80
2018-09-18T12:31:02.314Z,31.20
2018-09-18T12:33:31.077Z,30.70
2018-09-18T12:35:59.873Z,30.10
2018-09-18T12:38:28.567Z,29.80
2018-09-18T12:40:57.307Z,29.30
2018-09-18T12:43:25.869Z,29.10
2018-09-18T12:45:54.497Z,29.00
2018-09-18T12:48:24.069Z,28.80
2018-09-18T12:50:52.797Z,28.70
2018-09-18T12:53:27.038Z,28.60
2018-09-18T12:55:56.835Z,28.60
2018-09-18T12:58:25.685Z,28.40
2018-09-18T13:00:54.441Z,28.40
2018-09-18T13:03:23.320Z,28.60
2018-09-18T13:05:52.158Z,28.60
2018-09-18T13:08:21.435Z,28.50
2018-09-18T13:10:50.188Z,28.70
2018-09-18T13:13:18.920Z,28.40
2018-09-18T13:15:47.745Z,28.60
2018-09-18T13:18:16.489Z,28.60
2018-09-18T13:20:45.309Z,28.70
2018-09-18T13:23:14.037Z,29.20
2018-09-18T13:25:42.804Z,29.80
2018-09-18T13:28:11.527Z,30.30
2018-09-18T13:30:40.314Z,29.90
2018-09-18T13:33:09.017Z,29.30
2018-09-18T13:35:38.088Z,28.70
2018-09-18T13:38:07.373Z,28.20
2018-09-18T13:40:36.556Z,27.80
2018-09-18T13:43:05.278Z,27.80
2018-09-18T13:45:33.977Z,27.70
2018-09-18T13:48:02.853Z,27.60
2018-09-18T13:50:31.856Z,27.40
2018-09-18T13:53:02.969Z,27.40
2018-09-18T13:55:31.863Z,27.50
2018-09-18T13:58:01.047Z,27.50
2018-09-18T14:00:30.012Z,28.00
2018-09-18T14:03:00.582Z,29.20
2018-09-18T14:05:29.750Z,30.10
2018-09-18T14:07:58.513Z,30.30
2018-09-18T14:10:27.444Z,30.20
2018-09-18T14:12:56.497Z,30.40
2018-09-18T14:15:25.333Z,30.90
2018-09-18T14:17:54.191Z,31.00
2018-09-18T14:20:22.968Z,30.60
2018-09-18T14:22:51.708Z,29.90
2018-09-18T14:25:21.239Z,29.20
2018-09-18T14:27:50.026Z,28.50
2018-09-18T14:30:18.762Z,28.10
2018-09-18T14:32:47.626Z,27.80
2018-09-18T14:35:16.424Z,27.60
2018-09-18T14:37:45.642Z,27.40
2018-09-18T14:40:14.369Z,27.30
2018-09-18T14:42:43.113Z,27.30
2018-09-18T14:45:11.900Z,27.20
2018-09-18T14:47:41.749Z,27.00
2018-09-18T14:50:11.229Z,27.10
2018-09-18T14:52:39.971Z,26.40
2018-09-18T14:55:08.775Z,25.60
2018-09-18T14:57:38.416Z,24.60
2018-09-18T15:00:07.243Z,23.90
2018-09-18T15:02:36.011Z,23.50
2018-09-18T15:05:04.876Z,22.90
2018-09-18T15:07:33.634Z,22.50
2018-09-18T15:10:03.353Z,22.40
2018-09-18T15:12:32.117Z,22.30
2018-09-18T15:15:06.403Z,22.20
2018-09-18T15:17:35.034Z,22.10
2018-09-18T15:20:04.596Z,22.00
2018-09-18T15:22:33.484Z,22.00
2018-09-18T15:25:02.159Z,22.00
2018-09-18T15:27:31.498Z,21.80
2018-09-18T15:30:00.074Z,21.80
2018-09-18T15:32:28.774Z,22.00
2018-09-18T15:34:57.828Z,21.90
2018-09-18T15:37:26.578Z,22.00
2018-09-18T15:39:55.927Z,22.00
2018-09-18T15:42:24.596Z,22.20
2018-09-18T15:44:53.244Z,22.10
2018-09-18T15:47:21.962Z,22.00
2018-09-18T15:49:50.774Z,21.90
2018-09-18T15:52:19.581Z,21.80
2018-09-18T15:54:48.340Z,21.80
2018-09-18T15:57:17.655Z,21.70
2018-09-18T15:59:46.485Z,21.50
2018-09-18T16:02:15.324Z,21.30
2018-09-18T16:04:44.044Z,21.20
2018-09-18T16:07:12.756Z,21.20
2018-09-18T16:09:41.473Z,21.20
2018-09-18T16:12:10.196Z,21.30
2018-09-18T16:14:38.999Z,21.30
2018-09-18T16:17:07.689Z,21.40
2018-09-18T16:19:41.920Z,21.50
2018-09-18T16:22:10.540Z,21.70
2018-09-18T16:24:39.159Z,21.80
2018-09-18T16:27:07.868Z,21.90
2018-09-18T16:29:36.616Z,21.80
2018-09-18T16:32:05.316Z,21.80
2018-09-18T16:34:34.661Z,21.80
2018-09-18T16:37:03.312Z,21.70
2018-09-18T16:39:37.379Z,21.50
2018-09-18T16:42:06.019Z,21.40
2018-09-18T16:44:45.751Z,21.10
2018-09-18T16:47:14.747Z,20.90
2018-09-18T16:49:43.464Z,20.80
2018-09-18T16:52:12.240Z,20.70
2018-09-18T16:54:41.058Z,20.80
2018-09-18T16:57:09.694Z,20.80
2018-09-18T16:59:39.067Z,20.70
2018-09-18T17:02:07.710Z,20.80
2018-09-18T17:04:36.377Z,20.90
2018-09-18T17:07:05.252Z,20.90
2018-09-18T17:09:34.016Z,20.80
2018-09-18T17:12:02.758Z,20.70
2018-09-18T17:14:31.628Z,20.60
2018-09-18T17:17:00.331Z,20.50
2018-09-18T17:19:29.601Z,20.40
2018-09-18T17:21:58.196Z,20.30
2018-09-18T17:24:38.736Z,20.20
2018-09-18T17:27:08.159Z,20.20
2018-09-18T17:29:36.972Z,20.10
2018-09-18T17:32:05.681Z,20.10
2018-09-18T17:34:34.356Z,20.10
2018-09-18T17:37:03.026Z,20.10
2018-09-18T17:39:31.657Z,20.00
2018-09-18T17:42:00.299Z,19.80
2018-09-18T17:44:29.745Z,19.80
2018-09-18T17:46:59.306Z,19.70
2018-09-18T17:49:33.611Z,19.70
2018-09-18T17:52:03.437Z,19.70
2018-09-18T17:54:32.225Z,19.70
2018-09-18T17:57:04.852Z,19.60
2018-09-18T17:59:36.198Z,19.60
2018-09-18T18:02:05.358Z,19.60
2018-09-18T18:04:34.236Z,19.60
2018-09-18T18:07:03.237Z,19.60
2018-09-18T18:09:32.092Z,19.60
2018-09-18T18:12:01.132Z,19.60
2018-09-18T18:14:36.595Z,19.60
2018-09-18T18:17:06.925Z,19.60
2018-09-18T18:19:41.509Z,19.50
2018-09-18T18:22:11.035Z,19.50
2018-09-18T18:24:45.249Z,19.40
2018-09-18T18:27:14.518Z,19.40
2018-09-18T18:29:43.367Z,19.40
2018-09-18T18:32:17.470Z,19.30
2018-09-18T18:34:46.135Z,19.30
2018-09-18T18:37:14.979Z,19.30
2018-09-18T18:39:43.731Z,19.30
2018-09-18T18:42:19.041Z,19.30
2018-09-18T18:44:47.957Z,19.20
2018-09-18T18:47:17.224Z,19.20
2018-09-18T18:49:46.011Z,19.20
2018-09-18T18:52:14.797Z,19.10
2018-09-18T18:54:43.787Z,19.10
2018-09-18T18:57:12.762Z,19.10
2018-09-18T18:59:41.561Z,19.20
2018-09-18T19:02:11.343Z,19.10
2018-09-18T19:04:40.103Z,19.10
2018-09-18T19:07:09.516Z,19.10
2018-09-18T19:09:38.231Z,19.10
2018-09-18T19:12:08.996Z,19.00
2018-09-18T19:14:38.004Z,19.00
2018-09-18T19:17:07.795Z,18.90
2018-09-18T19:19:36.460Z,18.90
2018-09-18T19:22:16.163Z,18.80
2018-09-18T19:24:44.774Z,18.80
2018-09-18T19:27:13.483Z,18.80
2018-09-18T19:29:42.241Z,18.80
2018-09-18T19:32:10.982Z,18.80
2018-09-18T19:34:40.525Z,18.80
2018-09-18T19:37:09.406Z,18.80
2018-09-18T19:39:38.239Z,18.80
2018-09-18T19:42:07.123Z,18.80
2018-09-18T19:44:35.947Z,18.90
2018-09-18T19:47:04.740Z,18.90
2018-09-18T19:49:39.652Z,18.90
2018-09-18T19:52:09.828Z,18.80
2018-09-18T19:54:44.574Z,18.80
2018-09-18T19:57:18.789Z,18.70
2018-09-18T19:59:47.417Z,18.60
2018-09-18T20:02:16.054Z,18.60
2018-09-18T20:04:44.738Z,18.50
2018-09-18T20:07:13.424Z,18.50
2018-09-18T20:09:42.180Z,18.50
2018-09-18T20:12:11.612Z,18.50
2018-09-18T20:14:40.274Z,18.50
2018-09-18T20:17:14.531Z,18.50
2018-09-18T20:19:48.765Z,18.40
2018-09-18T20:22:23.157Z,18.40
2018-09-18T20:24:51.803Z,18.50
2018-09-18T20:27:26.175Z,18.50
2018-09-18T20:29:55.630Z,18.50
2018-09-18T20:32:24.811Z,18.50
2018-09-18T20:34:54.498Z,18.60
2018-09-18T20:37:23.573Z,18.60
2018-09-18T20:39:52.304Z,18.70
2018-09-18T20:42:21.046Z,18.60
2018-09-18T20:44:50.426Z,18.60
2018-09-18T20:47:19.143Z,18.60
2018-09-18T20:49:47.799Z,18.60
2018-09-18T20:52:16.441Z,18.60
2018-09-18T20:54:45.092Z,18.60
2018-09-18T20:57:13.907Z,18.70
2018-09-18T20:59:42.689Z,18.70
2018-09-18T21:02:11.453Z,18.60
2018-09-18T21:04:40.201Z,18.60
2018-09-18T21:07:09.239Z,18.60
2018-09-18T21:09:37.999Z,18.60
2018-09-18T21:12:07.427Z,18.60
2018-09-18T21:14:36.008Z,18.50
2018-09-18T21:17:10.228Z,18.50
2018-09-18T21:19:39.443Z,18.50
2018-09-18T21:22:08.026Z,18.40
2018-09-18T21:24:36.691Z,18.40
2018-09-18T21:27:10.866Z,18.40
2018-09-18T21:29:40.121Z,18.40
2018-09-18T21:32:08.773Z,18.40
2018-09-18T21:34:37.477Z,18.40
2018-09-18T21:37:06.343Z,18.40
2018-09-18T21:39:35.067Z,18.40
2018-09-18T21:42:04.446Z,18.40
2018-09-18T21:44:34.187Z,18.40
2018-09-18T21:47:02.864Z,18.30
2018-09-18T21:49:32.286Z,18.20
2018-09-18T21:52:01.468Z,18.20
2018-09-18T21:54:30.222Z,18.10
2018-09-18T21:56:59.536Z,18.20
2018-09-18T21:59:28.244Z,18.20
2018-09-18T22:01:56.848Z,18.20
2018-09-18T22:04:25.505Z,18.20
2018-09-18T22:06:54.196Z,18.20
2018-09-18T22:09:22.876Z,18.30
2018-09-18T22:11:51.768Z,18.30
2018-09-18T22:14:20.538Z,18.30
2018-09-18T22:16:49.932Z,18.20
2018-09-18T22:19:18.618Z,18.20
2018-09-18T22:21:47.429Z,18.10
2018-09-18T22:24:16.102Z,18.10
2018-09-18T22:26:44.835Z,18.00
2018-09-18T22:29:13.546Z,18.00
2018-09-18T22:31:42.365Z,18.00
2018-09-18T22:34:11.098Z,18.10
2018-09-18T22:36:39.783Z,18.20
2018-09-18T22:39:10.408Z,18.20
2018-09-18T22:41:39.265Z,18.40
2018-09-18T22:44:08.220Z,18.60
2018-09-18T22:46:36.983Z,18.60
2018-09-18T22:49:06.128Z,18.50
2018-09-18T22:51:34.839Z,18.40
2018-09-18T22:54:03.624Z,18.40
2018-09-18T22:56:32.328Z,18.30
2018-09-18T22:59:01.132Z,18.20
2018-09-18T23:01:29.964Z,18.10
2018-09-18T23:03:58.818Z,18.10
2018-09-18T23:06:27.606Z,18.10
2018-09-18T23:08:56.309Z,18.00
2018-09-18T23:11:24.989Z,17.90
2018-09-18T23:13:53.882Z,17.80
2018-09-18T23:16:22.653Z,17.70
2018-09-18T23:18:51.530Z,17.60
2018-09-18T23:21:21.316Z,17.70
2018-09-18T23:23:50.252Z,17.70
2018-09-18T23:26:19.485Z,17.70
2018-09-18T23:28:48.041Z,17.70
2018-09-18T23:31:16.668Z,17.60
2018-09-18T23:33:45.267Z,17.50
2018-09-18T23:36:14.005Z,17.50
2018-09-18T23:38:42.686Z,17.50
2018-09-18T23:41:11.433Z,17.50
2018-09-18T23:43:40.141Z,17.50
2018-09-18T23:46:08.837Z,17.50
2018-09-18T23:48:37.594Z,17.50
2018-09-18T23:51:06.157Z,17.50
2018-09-18T23:53:34.828Z,17.50
2018-09-18T23:56:03.517Z,17.60
2018-09-18T23:58:32.563Z,17.50
